sensor_id;sensor_type;location;lat;lon;timestamp;P1;durP1;ratioP1;P2;durP2;ratioP2
315;SDS011;14128;48.686;9.738;2022-07-23T00:02:26;6.37;;;6.00;;
315;SDS011;14128;48.686;9.738;2022-07-23T00:04:54;6.60;;;6.20;;
315;SDS011;14128;48.686;9.738;2022-07-23T00:07:21;6.67;;;6.27;;
315;SDS011;14128;48.686;9.738;2022-07-23T00:09:49;10.60;;;6.87;;
315;SDS011;14128;48.686;9.738;2022-07-23T00:12:16;6.70;;;6.30;;
315;SDS011;14128;48.686;9.738;2022-07-23T00:14:43;7.73;;;7.33;;
315;SDS011;14128;48.686;9.738;2022-07-23T00:17:10;6.40;;;6.00;;
315;SDS011;14128;48.686;9.738;2022-07-23T00:19:37;7.10;;;6.73;;
315;SDS011;14128;48.686;9.738;2022-07-23T00:22:05;7.33;;;6.80;;
315;SDS011;14128;48.686;9.738;2022-07-23T00:24:33;7.77;;;7.37;;
315;SDS011;14128;48.686;9.738;2022-07-23T00:27:00;8.20;;;7.80;;
315;SDS011;14128;48.686;9.738;2022-07-23T00:29:27;10.37;;;7.87;;
315;SDS011;14128;48.686;9.738;2022-07-23T00:31:54;9.33;;;8.83;;
315;SDS011;14128;48.686;9.738;2022-07-23T00:34:21;8.80;;;8.30;;
315;SDS011;14128;48.686;9.738;2022-07-23T00:36:48;9.10;;;6.70;;
315;SDS011;14128;48.686;9.738;2022-07-23T00:39:20;8.13;;;7.73;;
315;SDS011;14128;48.686;9.738;2022-07-23T00:41:47;8.73;;;8.23;;
315;SDS011;14128;48.686;9.738;2022-07-23T00:44:15;8.90;;;6.80;;
315;SDS011;14128;48.686;9.738;2022-07-23T00:46:45;9.40;;;8.90;;
315;SDS011;14128;48.686;9.738;2022-07-23T00:49:12;9.67;;;8.77;;
315;SDS011;14128;48.686;9.738;2022-07-23T00:51:39;8.77;;;8.27;;
315;SDS011;14128;48.686;9.738;2022-07-23T00:54:06;9.00;;;8.27;;
315;SDS011;14128;48.686;9.738;2022-07-23T00:56:35;8.63;;;8.13;;
315;SDS011;14128;48.686;9.738;2022-07-23T00:59:02;8.57;;;8.07;;
315;SDS011;14128;48.686;9.738;2022-07-23T01:01:29;9.10;;;8.60;;
315;SDS011;14128;48.686;9.738;2022-07-23T01:03:56;8.20;;;7.80;;
315;SDS011;14128;48.686;9.738;2022-07-23T01:06:24;8.13;;;7.73;;
315;SDS011;14128;48.686;9.738;2022-07-23T01:08:51;7.90;;;7.50;;
315;SDS011;14128;48.686;9.738;2022-07-23T01:11:18;8.80;;;8.30;;
315;SDS011;14128;48.686;9.738;2022-07-23T01:13:47;7.80;;;6.97;;
315;SDS011;14128;48.686;9.738;2022-07-23T01:16:14;8.33;;;7.90;;
315;SDS011;14128;48.686;9.738;2022-07-23T01:18:41;8.63;;;7.20;;
315;SDS011;14128;48.686;9.738;2022-07-23T01:21:09;7.90;;;7.50;;
315;SDS011;14128;48.686;9.738;2022-07-23T01:23:40;8.00;;;7.60;;
315;SDS011;14128;48.686;9.738;2022-07-23T01:26:07;10.50;;;7.30;;
315;SDS011;14128;48.686;9.738;2022-07-23T01:28:34;8.10;;;7.70;;
315;SDS011;14128;48.686;9.738;2022-07-23T01:31:01;8.27;;;7.83;;
315;SDS011;14128;48.686;9.738;2022-07-23T01:33:29;8.23;;;7.83;;
315;SDS011;14128;48.686;9.738;2022-07-23T01:35:56;7.47;;;7.03;;
315;SDS011;14128;48.686;9.738;2022-07-23T01:38:23;8.90;;;8.17;;
315;SDS011;14128;48.686;9.738;2022-07-23T01:40:51;8.57;;;8.07;;
315;SDS011;14128;48.686;9.738;2022-07-23T01:43:19;7.87;;;7.00;;
315;SDS011;14128;48.686;9.738;2022-07-23T01:45:46;9.60;;;7.30;;
315;SDS011;14128;48.686;9.738;2022-07-23T01:48:13;7.67;;;7.30;;
315;SDS011;14128;48.686;9.738;2022-07-23T01:50:41;7.87;;;7.47;;
315;SDS011;14128;48.686;9.738;2022-07-23T01:53:08;7.30;;;6.90;;
315;SDS011;14128;48.686;9.738;2022-07-23T01:55:35;8.60;;;6.63;;
315;SDS011;14128;48.686;9.738;2022-07-23T01:58:04;7.80;;;6.60;;
315;SDS011;14128;48.686;9.738;2022-07-23T02:00:31;7.67;;;7.27;;
315;SDS011;14128;48.686;9.738;2022-07-23T02:02:58;7.23;;;6.87;;
315;SDS011;14128;48.686;9.738;2022-07-23T02:05:26;7.47;;;7.07;;
315;SDS011;14128;48.686;9.738;2022-07-23T02:07:53;10.60;;;6.63;;
315;SDS011;14128;48.686;9.738;2022-07-23T02:10:21;8.00;;;6.70;;
315;SDS011;14128;48.686;9.738;2022-07-23T02:12:48;6.27;;;5.93;;
315;SDS011;14128;48.686;9.738;2022-07-23T02:15:16;7.67;;;7.27;;
315;SDS011;14128;48.686;9.738;2022-07-23T02:17:43;6.73;;;6.30;;
315;SDS011;14128;48.686;9.738;2022-07-23T02:20:11;8.10;;;7.70;;
315;SDS011;14128;48.686;9.738;2022-07-23T02:22:38;9.30;;;8.50;;
315;SDS011;14128;48.686;9.738;2022-07-23T02:25:05;7.47;;;7.07;;
315;SDS011;14128;48.686;9.738;2022-07-23T02:27:33;7.30;;;6.90;;
315;SDS011;14128;48.686;9.738;2022-07-23T02:30:00;7.70;;;7.30;;
315;SDS011;14128;48.686;9.738;2022-07-23T02:32:29;7.03;;;6.63;;
315;SDS011;14128;48.686;9.738;2022-07-23T02:34:56;7.00;;;6.60;;
315;SDS011;14128;48.686;9.738;2022-07-23T02:37:23;8.77;;;8.27;;
315;SDS011;14128;48.686;9.738;2022-07-23T02:39:50;9.13;;;8.63;;
315;SDS011;14128;48.686;9.738;2022-07-23T02:42:17;8.03;;;6.97;;
315;SDS011;14128;48.686;9.738;2022-07-23T02:44:44;7.63;;;7.23;;
315;SDS011;14128;48.686;9.738;2022-07-23T02:47:12;8.80;;;8.30;;
315;SDS011;14128;48.686;9.738;2022-07-23T02:49:40;8.03;;;7.63;;
315;SDS011;14128;48.686;9.738;2022-07-23T02:52:07;7.90;;;7.50;;
315;SDS011;14128;48.686;9.738;2022-07-23T02:54:35;7.03;;;6.63;;
315;SDS011;14128;48.686;9.738;2022-07-23T02:57:02;7.43;;;7.03;;
315;SDS011;14128;48.686;9.738;2022-07-23T02:59:29;7.57;;;7.17;;
315;SDS011;14128;48.686;9.738;2022-07-23T03:01:56;7.53;;;7.10;;
315;SDS011;14128;48.686;9.738;2022-07-23T03:04:23;8.60;;;7.00;;
315;SDS011;14128;48.686;9.738;2022-07-23T03:06:52;7.13;;;6.73;;
315;SDS011;14128;48.686;9.738;2022-07-23T03:09:19;7.17;;;6.77;;
315;SDS011;14128;48.686;9.738;2022-07-23T03:11:46;7.50;;;7.10;;
315;SDS011;14128;48.686;9.738;2022-07-23T03:14:13;6.83;;;6.43;;
315;SDS011;14128;48.686;9.738;2022-07-23T03:16:41;6.83;;;6.40;;
315;SDS011;14128;48.686;9.738;2022-07-23T03:19:08;7.50;;;7.00;;
315;SDS011;14128;48.686;9.738;2022-07-23T03:21:35;7.53;;;7.13;;
315;SDS011;14128;48.686;9.738;2022-07-23T03:24:06;6.50;;;6.10;;
315;SDS011;14128;48.686;9.738;2022-07-23T03:26:34;7.07;;;6.67;;
315;SDS011;14128;48.686;9.738;2022-07-23T03:29:03;7.27;;;6.87;;
315;SDS011;14128;48.686;9.738;2022-07-23T03:31:30;7.43;;;7.03;;
315;SDS011;14128;48.686;9.738;2022-07-23T03:33:57;7.73;;;7.33;;
315;SDS011;14128;48.686;9.738;2022-07-23T03:36:24;7.93;;;7.47;;
315;SDS011;14128;48.686;9.738;2022-07-23T03:38:52;7.57;;;7.10;;
315;SDS011;14128;48.686;9.738;2022-07-23T03:41:20;7.93;;;7.53;;
315;SDS011;14128;48.686;9.738;2022-07-23T03:43:47;7.80;;;7.40;;
315;SDS011;14128;48.686;9.738;2022-07-23T03:46:14;7.70;;;7.30;;
315;SDS011;14128;48.686;9.738;2022-07-23T03:48:42;6.60;;;6.20;;
315;SDS011;14128;48.686;9.738;2022-07-23T03:51:09;7.90;;;7.50;;
315;SDS011;14128;48.686;9.738;2022-07-23T03:53:36;7.70;;;7.30;;
315;SDS011;14128;48.686;9.738;2022-07-23T03:56:03;9.77;;;9.27;;
315;SDS011;14128;48.686;9.738;2022-07-23T03:58:32;10.10;;;9.60;;
315;SDS011;14128;48.686;9.738;2022-07-23T04:00:59;8.03;;;7.63;;
315;SDS011;14128;48.686;9.738;2022-07-23T04:03:26;8.60;;;8.10;;
315;SDS011;14128;48.686;9.738;2022-07-23T04:05:54;8.70;;;8.20;;
315;SDS011;14128;48.686;9.738;2022-07-23T04:08:21;9.83;;;8.13;;
315;SDS011;14128;48.686;9.738;2022-07-23T04:10:48;8.43;;;7.97;;
315;SDS011;14128;48.686;9.738;2022-07-23T04:13:16;7.30;;;6.90;;
315;SDS011;14128;48.686;9.738;2022-07-23T04:15:44;9.40;;;7.80;;
315;SDS011;14128;48.686;9.738;2022-07-23T04:18:11;8.23;;;7.83;;
315;SDS011;14128;48.686;9.738;2022-07-23T04:20:38;8.73;;;8.23;;
315;SDS011;14128;48.686;9.738;2022-07-23T04:23:06;9.20;;;8.57;;
315;SDS011;14128;48.686;9.738;2022-07-23T04:25:34;8.10;;;7.70;;
315;SDS011;14128;48.686;9.738;2022-07-23T04:28:01;7.77;;;7.37;;
315;SDS011;14128;48.686;9.738;2022-07-23T04:30:29;8.43;;;7.97;;
315;SDS011;14128;48.686;9.738;2022-07-23T04:32:57;8.20;;;7.10;;
315;SDS011;14128;48.686;9.738;2022-07-23T04:35:24;8.27;;;7.87;;
315;SDS011;14128;48.686;9.738;2022-07-23T04:37:51;7.43;;;7.03;;
315;SDS011;14128;48.686;9.738;2022-07-23T04:40:18;8.53;;;8.03;;
315;SDS011;14128;48.686;9.738;2022-07-23T04:42:46;8.17;;;6.80;;
315;SDS011;14128;48.686;9.738;2022-07-23T04:45:13;9.90;;;8.20;;
315;SDS011;14128;48.686;9.738;2022-07-23T04:47:40;8.23;;;7.83;;
315;SDS011;14128;48.686;9.738;2022-07-23T04:50:08;7.60;;;7.13;;
315;SDS011;14128;48.686;9.738;2022-07-23T04:52:36;7.97;;;7.57;;
315;SDS011;14128;48.686;9.738;2022-07-23T04:55:03;9.23;;;8.23;;
315;SDS011;14128;48.686;9.738;2022-07-23T04:57:31;9.80;;;9.30;;
315;SDS011;14128;48.686;9.738;2022-07-23T04:59:58;8.77;;;8.23;;
315;SDS011;14128;48.686;9.738;2022-07-23T05:02:25;10.50;;;8.10;;
315;SDS011;14128;48.686;9.738;2022-07-23T05:04:52;8.90;;;8.40;;
315;SDS011;14128;48.686;9.738;2022-07-23T05:07:20;9.33;;;8.83;;
315;SDS011;14128;48.686;9.738;2022-07-23T05:09:48;8.50;;;7.80;;
315;SDS011;14128;48.686;9.738;2022-07-23T05:12:15;9.00;;;8.50;;
315;SDS011;14128;48.686;9.738;2022-07-23T05:14:42;8.73;;;8.23;;
315;SDS011;14128;48.686;9.738;2022-07-23T05:17:09;8.27;;;7.87;;
315;SDS011;14128;48.686;9.738;2022-07-23T05:19:36;8.30;;;7.90;;
315;SDS011;14128;48.686;9.738;2022-07-23T05:22:03;9.53;;;9.03;;
315;SDS011;14128;48.686;9.738;2022-07-23T05:24:32;8.30;;;7.27;;
315;SDS011;14128;48.686;9.738;2022-07-23T05:26:59;8.37;;;7.93;;
315;SDS011;14128;48.686;9.738;2022-07-23T05:29:26;8.43;;;7.97;;
315;SDS011;14128;48.686;9.738;2022-07-23T05:31:53;8.97;;;8.47;;
315;SDS011;14128;48.686;9.738;2022-07-23T05:34:20;8.73;;;8.23;;
315;SDS011;14128;48.686;9.738;2022-07-23T05:36:47;7.80;;;7.40;;
315;SDS011;14128;48.686;9.738;2022-07-23T05:39:15;8.90;;;8.40;;
315;SDS011;14128;48.686;9.738;2022-07-23T05:41:43;8.37;;;7.40;;
315;SDS011;14128;48.686;9.738;2022-07-23T05:44:10;7.03;;;6.63;;
315;SDS011;14128;48.686;9.738;2022-07-23T05:46:37;6.90;;;6.50;;
315;SDS011;14128;48.686;9.738;2022-07-23T05:49:04;6.93;;;6.53;;
315;SDS011;14128;48.686;9.738;2022-07-23T05:51:32;7.87;;;7.47;;
315;SDS011;14128;48.686;9.738;2022-07-23T05:53:59;7.63;;;6.60;;
315;SDS011;14128;48.686;9.738;2022-07-23T05:56:26;6.60;;;6.20;;
315;SDS011;14128;48.686;9.738;2022-07-23T05:58:54;7.97;;;7.50;;
315;SDS011;14128;48.686;9.738;2022-07-23T06:01:22;8.60;;;8.10;;
315;SDS011;14128;48.686;9.738;2022-07-23T06:03:49;7.83;;;7.43;;
315;SDS011;14128;48.686;9.738;2022-07-23T06:06:16;9.43;;;7.40;;
315;SDS011;14128;48.686;9.738;2022-07-23T06:08:43;8.80;;;8.30;;
315;SDS011;14128;48.686;9.738;2022-07-23T06:11:10;8.80;;;8.30;;
315;SDS011;14128;48.686;9.738;2022-07-23T06:13:37;8.53;;;7.30;;
315;SDS011;14128;48.686;9.738;2022-07-23T06:16:06;7.93;;;7.53;;
315;SDS011;14128;48.686;9.738;2022-07-23T06:18:33;6.63;;;6.23;;
315;SDS011;14128;48.686;9.738;2022-07-23T06:21:00;10.20;;;7.00;;
315;SDS011;14128;48.686;9.738;2022-07-23T06:23:27;8.33;;;7.90;;
315;SDS011;14128;48.686;9.738;2022-07-23T06:25:54;7.60;;;7.20;;
315;SDS011;14128;48.686;9.738;2022-07-23T06:28:22;7.17;;;6.70;;
315;SDS011;14128;48.686;9.738;2022-07-23T06:30:49;7.03;;;6.63;;
315;SDS011;14128;48.686;9.738;2022-07-23T06:33:17;7.10;;;6.70;;
315;SDS011;14128;48.686;9.738;2022-07-23T06:35:44;7.93;;;7.53;;
315;SDS011;14128;48.686;9.738;2022-07-23T06:38:11;7.23;;;6.83;;
315;SDS011;14128;48.686;9.738;2022-07-23T06:40:39;7.50;;;7.10;;
315;SDS011;14128;48.686;9.738;2022-07-23T06:43:06;8.80;;;6.63;;
315;SDS011;14128;48.686;9.738;2022-07-23T06:45:33;7.40;;;7.00;;
315;SDS011;14128;48.686;9.738;2022-07-23T06:48:00;7.60;;;7.20;;
315;SDS011;14128;48.686;9.738;2022-07-23T06:50:29;8.00;;;7.60;;
315;SDS011;14128;48.686;9.738;2022-07-23T06:52:56;7.20;;;6.53;;
315;SDS011;14128;48.686;9.738;2022-07-23T06:55:24;7.00;;;6.60;;
315;SDS011;14128;48.686;9.738;2022-07-23T06:57:51;7.30;;;6.90;;
315;SDS011;14128;48.686;9.738;2022-07-23T07:00:18;7.40;;;7.00;;
315;SDS011;14128;48.686;9.738;2022-07-23T07:02:45;6.87;;;6.47;;
315;SDS011;14128;48.686;9.738;2022-07-23T07:05:12;6.40;;;6.00;;
315;SDS011;14128;48.686;9.738;2022-07-23T07:07:41;8.03;;;6.87;;
315;SDS011;14128;48.686;9.738;2022-07-23T07:10:08;6.57;;;6.23;;
315;SDS011;14128;48.686;9.738;2022-07-23T07:12:35;7.10;;;6.70;;
315;SDS011;14128;48.686;9.738;2022-07-23T07:15:03;6.80;;;6.40;;
315;SDS011;14128;48.686;9.738;2022-07-23T07:17:30;6.70;;;6.30;;
315;SDS011;14128;48.686;9.738;2022-07-23T07:19:57;8.30;;;6.63;;
315;SDS011;14128;48.686;9.738;2022-07-23T07:22:24;6.63;;;6.23;;
315;SDS011;14128;48.686;9.738;2022-07-23T07:24:53;6.40;;;6.00;;
315;SDS011;14128;48.686;9.738;2022-07-23T07:27:20;7.53;;;6.27;;
315;SDS011;14128;48.686;9.738;2022-07-23T07:29:47;6.83;;;6.43;;
315;SDS011;14128;48.686;9.738;2022-07-23T07:32:14;6.83;;;6.43;;
315;SDS011;14128;48.686;9.738;2022-07-23T07:34:41;5.90;;;5.60;;
315;SDS011;14128;48.686;9.738;2022-07-23T07:37:08;6.97;;;6.57;;
315;SDS011;14128;48.686;9.738;2022-07-23T07:39:35;7.07;;;6.20;;
315;SDS011;14128;48.686;9.738;2022-07-23T07:42:04;6.20;;;5.90;;
315;SDS011;14128;48.686;9.738;2022-07-23T07:44:31;7.10;;;6.70;;
315;SDS011;14128;48.686;9.738;2022-07-23T07:46:58;7.23;;;6.83;;
315;SDS011;14128;48.686;9.738;2022-07-23T07:49:26;6.83;;;6.43;;
315;SDS011;14128;48.686;9.738;2022-07-23T07:51:53;6.70;;;6.30;;
315;SDS011;14128;48.686;9.738;2022-07-23T07:54:20;7.00;;;6.53;;
315;SDS011;14128;48.686;9.738;2022-07-23T07:56:47;6.20;;;5.90;;
315;SDS011;14128;48.686;9.738;2022-07-23T07:59:15;6.80;;;6.30;;
315;SDS011;14128;48.686;9.738;2022-07-23T08:01:43;6.53;;;6.13;;
315;SDS011;14128;48.686;9.738;2022-07-23T08:04:10;6.90;;;6.50;;
315;SDS011;14128;48.686;9.738;2022-07-23T08:06:37;7.70;;;7.30;;
315;SDS011;14128;48.686;9.738;2022-07-23T08:09:04;7.60;;;7.20;;
315;SDS011;14128;48.686;9.738;2022-07-23T08:11:31;8.07;;;7.67;;
315;SDS011;14128;48.686;9.738;2022-07-23T08:13:58;7.20;;;6.80;;
315;SDS011;14128;48.686;9.738;2022-07-23T08:16:27;7.57;;;7.17;;
315;SDS011;14128;48.686;9.738;2022-07-23T08:18:54;8.10;;;7.70;;
315;SDS011;14128;48.686;9.738;2022-07-23T08:21:21;7.63;;;7.23;;
315;SDS011;14128;48.686;9.738;2022-07-23T08:23:48;7.57;;;7.17;;
315;SDS011;14128;48.686;9.738;2022-07-23T08:26:15;7.27;;;6.87;;
315;SDS011;14128;48.686;9.738;2022-07-23T08:28:42;10.57;;;7.07;;
315;SDS011;14128;48.686;9.738;2022-07-23T08:31:09;6.70;;;6.30;;
315;SDS011;14128;48.686;9.738;2022-07-23T08:33:38;7.70;;;7.30;;
315;SDS011;14128;48.686;9.738;2022-07-23T08:36:06;7.93;;;7.20;;
315;SDS011;14128;48.686;9.738;2022-07-23T08:38:33;7.10;;;6.70;;
315;SDS011;14128;48.686;9.738;2022-07-23T08:41:01;7.47;;;7.07;;
315;SDS011;14128;48.686;9.738;2022-07-23T08:43:30;7.13;;;6.73;;
315;SDS011;14128;48.686;9.738;2022-07-23T08:45:58;7.73;;;7.33;;
315;SDS011;14128;48.686;9.738;2022-07-23T08:48:26;7.83;;;7.43;;
315;SDS011;14128;48.686;9.738;2022-07-23T08:50:55;6.80;;;6.40;;
315;SDS011;14128;48.686;9.738;2022-07-23T08:53:23;7.70;;;6.90;;
315;SDS011;14128;48.686;9.738;2022-07-23T08:55:51;7.20;;;6.80;;
315;SDS011;14128;48.686;9.738;2022-07-23T08:58:19;8.30;;;7.87;;
315;SDS011;14128;48.686;9.738;2022-07-23T09:00:46;7.33;;;6.93;;
315;SDS011;14128;48.686;9.738;2022-07-23T09:03:14;6.00;;;5.70;;
315;SDS011;14128;48.686;9.738;2022-07-23T09:05:42;7.00;;;6.60;;
315;SDS011;14128;48.686;9.738;2022-07-23T09:08:11;7.20;;;6.80;;
315;SDS011;14128;48.686;9.738;2022-07-23T09:10:42;7.37;;;6.97;;
315;SDS011;14128;48.686;9.738;2022-07-23T09:13:21;7.60;;;7.20;;
315;SDS011;14128;48.686;9.738;2022-07-23T09:15:49;7.90;;;7.40;;
315;SDS011;14128;48.686;9.738;2022-07-23T09:18:16;7.30;;;6.90;;
315;SDS011;14128;48.686;9.738;2022-07-23T09:20:44;7.70;;;7.30;;
315;SDS011;14128;48.686;9.738;2022-07-23T09:23:12;8.07;;;6.20;;
315;SDS011;14128;48.686;9.738;2022-07-23T09:25:39;6.67;;;6.27;;
315;SDS011;14128;48.686;9.738;2022-07-23T09:28:06;7.70;;;7.30;;
315;SDS011;14128;48.686;9.738;2022-07-23T09:30:33;7.90;;;7.07;;
315;SDS011;14128;48.686;9.738;2022-07-23T09:33:04;7.60;;;7.20;;
315;SDS011;14128;48.686;9.738;2022-07-23T09:35:48;7.50;;;7.10;;
315;SDS011;14128;48.686;9.738;2022-07-23T09:38:17;7.70;;;7.20;;
315;SDS011;14128;48.686;9.738;2022-07-23T09:40:45;6.77;;;6.37;;
315;SDS011;14128;48.686;9.738;2022-07-23T09:43:12;7.00;;;6.60;;
315;SDS011;14128;48.686;9.738;2022-07-23T09:45:40;7.73;;;7.33;;
315;SDS011;14128;48.686;9.738;2022-07-23T09:48:11;6.87;;;6.30;;
315;SDS011;14128;48.686;9.738;2022-07-23T09:50:39;7.00;;;6.43;;
315;SDS011;14128;48.686;9.738;2022-07-23T09:53:06;7.63;;;7.23;;
315;SDS011;14128;48.686;9.738;2022-07-23T09:55:35;7.70;;;7.30;;
315;SDS011;14128;48.686;9.738;2022-07-23T09:58:04;7.13;;;6.73;;
315;SDS011;14128;48.686;9.738;2022-07-23T10:00:33;7.00;;;6.60;;
315;SDS011;14128;48.686;9.738;2022-07-23T10:03:00;7.80;;;7.40;;
315;SDS011;14128;48.686;9.738;2022-07-23T10:05:28;6.70;;;6.30;;
315;SDS011;14128;48.686;9.738;2022-07-23T10:07:56;7.57;;;7.17;;
315;SDS011;14128;48.686;9.738;2022-07-23T10:10:24;7.93;;;6.53;;
315;SDS011;14128;48.686;9.738;2022-07-23T10:12:55;7.47;;;6.37;;
315;SDS011;14128;48.686;9.738;2022-07-23T10:15:40;6.60;;;6.20;;
315;SDS011;14128;48.686;9.738;2022-07-23T10:18:08;6.80;;;6.40;;
315;SDS011;14128;48.686;9.738;2022-07-23T10:20:37;7.63;;;7.23;;
315;SDS011;14128;48.686;9.738;2022-07-23T10:23:05;7.00;;;6.60;;
315;SDS011;14128;48.686;9.738;2022-07-23T10:25:36;6.43;;;6.07;;
315;SDS011;14128;48.686;9.738;2022-07-23T10:28:15;8.30;;;6.83;;
315;SDS011;14128;48.686;9.738;2022-07-23T10:30:47;7.00;;;6.60;;
315;SDS011;14128;48.686;9.738;2022-07-23T10:33:26;7.60;;;6.03;;
315;SDS011;14128;48.686;9.738;2022-07-23T10:35:56;6.33;;;5.97;;
315;SDS011;14128;48.686;9.738;2022-07-23T10:38:27;7.93;;;6.33;;
315;SDS011;14128;48.686;9.738;2022-07-23T10:40:58;6.70;;;6.30;;
315;SDS011;14128;48.686;9.738;2022-07-23T10:43:27;5.63;;;5.33;;
315;SDS011;14128;48.686;9.738;2022-07-23T10:45:55;6.00;;;5.70;;
315;SDS011;14128;48.686;9.738;2022-07-23T10:48:23;6.00;;;5.70;;
315;SDS011;14128;48.686;9.738;2022-07-23T10:51:07;6.80;;;6.40;;
315;SDS011;14128;48.686;9.738;2022-07-23T10:53:53;6.90;;;6.50;;
315;SDS011;14128;48.686;9.738;2022-07-23T10:59:04;6.97;;;6.57;;
315;SDS011;14128;48.686;9.738;2022-07-23T11:01:32;6.10;;;5.80;;
315;SDS011;14128;48.686;9.738;2022-07-23T11:03:59;6.77;;;6.37;;
315;SDS011;14128;48.686;9.738;2022-07-23T11:09:24;7.10;;;6.70;;
315;SDS011;14128;48.686;9.738;2022-07-23T11:17:20;6.97;;;6.57;;
315;SDS011;14128;48.686;9.738;2022-07-23T11:22:36;6.77;;;6.37;;
315;SDS011;14128;48.686;9.738;2022-07-23T11:25:03;6.47;;;6.03;;
315;SDS011;14128;48.686;9.738;2022-07-23T11:27:36;6.40;;;6.00;;
315;SDS011;14128;48.686;9.738;2022-07-23T11:30:03;6.43;;;6.03;;
315;SDS011;14128;48.686;9.738;2022-07-23T11:32:33;7.53;;;7.13;;
315;SDS011;14128;48.686;9.738;2022-07-23T11:35:03;8.33;;;6.10;;
315;SDS011;14128;48.686;9.738;2022-07-23T11:37:45;6.97;;;6.57;;
315;SDS011;14128;48.686;9.738;2022-07-23T11:40:14;6.20;;;5.90;;
315;SDS011;14128;48.686;9.738;2022-07-23T11:42:51;7.20;;;6.80;;
315;SDS011;14128;48.686;9.738;2022-07-23T11:45:18;7.00;;;6.60;;
315;SDS011;14128;48.686;9.738;2022-07-23T11:47:46;6.90;;;6.50;;
315;SDS011;14128;48.686;9.738;2022-07-23T11:50:13;7.30;;;6.90;;
315;SDS011;14128;48.686;9.738;2022-07-23T11:52:41;6.37;;;6.00;;
315;SDS011;14128;48.686;9.738;2022-07-23T11:55:08;6.90;;;6.50;;
315;SDS011;14128;48.686;9.738;2022-07-23T11:57:36;7.30;;;6.90;;
315;SDS011;14128;48.686;9.738;2022-07-23T12:00:06;6.40;;;6.00;;
315;SDS011;14128;48.686;9.738;2022-07-23T12:02:34;6.17;;;5.87;;
315;SDS011;14128;48.686;9.738;2022-07-23T12:05:03;7.40;;;7.00;;
315;SDS011;14128;48.686;9.738;2022-07-23T12:07:31;7.13;;;6.73;;
315;SDS011;14128;48.686;9.738;2022-07-23T12:10:00;7.40;;;7.07;;
315;SDS011;14128;48.686;9.738;2022-07-23T12:12:27;5.83;;;5.43;;
315;SDS011;14128;48.686;9.738;2022-07-23T12:15:01;7.10;;;6.70;;
315;SDS011;14128;48.686;9.738;2022-07-23T12:17:29;7.27;;;6.87;;
315;SDS011;14128;48.686;9.738;2022-07-23T12:19:56;6.70;;;6.30;;
315;SDS011;14128;48.686;9.738;2022-07-23T12:22:26;7.33;;;6.90;;
315;SDS011;14128;48.686;9.738;2022-07-23T12:24:56;6.77;;;6.37;;
315;SDS011;14128;48.686;9.738;2022-07-23T12:27:24;6.73;;;6.33;;
315;SDS011;14128;48.686;9.738;2022-07-23T12:29:51;6.50;;;5.60;;
315;SDS011;14128;48.686;9.738;2022-07-23T12:32:20;5.50;;;5.20;;
315;SDS011;14128;48.686;9.738;2022-07-23T12:34:48;5.73;;;5.43;;
315;SDS011;14128;48.686;9.738;2022-07-23T12:37:31;5.33;;;5.07;;
315;SDS011;14128;48.686;9.738;2022-07-23T12:39:58;6.60;;;5.90;;
315;SDS011;14128;48.686;9.738;2022-07-23T12:42:25;5.67;;;5.37;;
315;SDS011;14128;48.686;9.738;2022-07-23T12:45:02;5.37;;;5.07;;
315;SDS011;14128;48.686;9.738;2022-07-23T12:47:30;5.60;;;4.97;;
315;SDS011;14128;48.686;9.738;2022-07-23T12:49:57;5.30;;;4.97;;
315;SDS011;14128;48.686;9.738;2022-07-23T12:52:24;5.57;;;5.27;;
315;SDS011;14128;48.686;9.738;2022-07-23T12:54:52;6.37;;;6.00;;
315;SDS011;14128;48.686;9.738;2022-07-23T12:57:22;6.07;;;5.77;;
315;SDS011;14128;48.686;9.738;2022-07-23T13:00:08;5.67;;;5.00;;
315;SDS011;14128;48.686;9.738;2022-07-23T13:02:44;5.50;;;5.20;;
315;SDS011;14128;48.686;9.738;2022-07-23T13:05:12;5.63;;;5.33;;
315;SDS011;14128;48.686;9.738;2022-07-23T13:07:39;5.33;;;5.03;;
315;SDS011;14128;48.686;9.738;2022-07-23T13:10:08;6.00;;;5.70;;
315;SDS011;14128;48.686;9.738;2022-07-23T13:12:37;5.40;;;5.10;;
315;SDS011;14128;48.686;9.738;2022-07-23T13:15:04;4.73;;;4.43;;
315;SDS011;14128;48.686;9.738;2022-07-23T13:17:31;5.00;;;4.70;;
315;SDS011;14128;48.686;9.738;2022-07-23T13:19:59;5.63;;;5.30;;
315;SDS011;14128;48.686;9.738;2022-07-23T13:22:26;5.00;;;4.70;;
315;SDS011;14128;48.686;9.738;2022-07-23T13:24:53;5.60;;;5.30;;
315;SDS011;14128;48.686;9.738;2022-07-23T13:27:21;5.20;;;4.90;;
315;SDS011;14128;48.686;9.738;2022-07-23T13:29:48;5.60;;;5.30;;
315;SDS011;14128;48.686;9.738;2022-07-23T13:32:16;5.10;;;4.80;;
315;SDS011;14128;48.686;9.738;2022-07-23T13:34:43;5.53;;;5.23;;
315;SDS011;14128;48.686;9.738;2022-07-23T13:37:10;5.80;;;5.50;;
315;SDS011;14128;48.686;9.738;2022-07-23T13:39:38;5.90;;;5.60;;
315;SDS011;14128;48.686;9.738;2022-07-23T13:42:05;5.40;;;5.10;;
315;SDS011;14128;48.686;9.738;2022-07-23T13:44:34;6.03;;;5.73;;
315;SDS011;14128;48.686;9.738;2022-07-23T13:47:01;6.20;;;5.87;;
315;SDS011;14128;48.686;9.738;2022-07-23T13:49:28;6.50;;;6.13;;
315;SDS011;14128;48.686;9.738;2022-07-23T13:51:56;5.60;;;5.30;;
315;SDS011;14128;48.686;9.738;2022-07-23T13:54:23;5.17;;;4.87;;
315;SDS011;14128;48.686;9.738;2022-07-23T13:56:50;5.17;;;4.87;;
315;SDS011;14128;48.686;9.738;2022-07-23T13:59:17;5.73;;;5.43;;
315;SDS011;14128;48.686;9.738;2022-07-23T14:01:46;6.67;;;6.27;;
315;SDS011;14128;48.686;9.738;2022-07-23T14:04:13;5.33;;;5.03;;
315;SDS011;14128;48.686;9.738;2022-07-23T14:06:40;5.20;;;4.90;;
315;SDS011;14128;48.686;9.738;2022-07-23T14:09:07;5.70;;;5.40;;
315;SDS011;14128;48.686;9.738;2022-07-23T14:11:34;5.63;;;4.67;;
315;SDS011;14128;48.686;9.738;2022-07-23T14:14:02;5.20;;;4.90;;
315;SDS011;14128;48.686;9.738;2022-07-23T14:16:29;6.80;;;5.67;;
315;SDS011;14128;48.686;9.738;2022-07-23T14:18:57;5.67;;;5.37;;
315;SDS011;14128;48.686;9.738;2022-07-23T14:21:24;5.17;;;4.87;;
315;SDS011;14128;48.686;9.738;2022-07-23T14:23:52;5.60;;;5.30;;
315;SDS011;14128;48.686;9.738;2022-07-23T14:26:19;5.70;;;5.40;;
315;SDS011;14128;48.686;9.738;2022-07-23T14:28:46;5.40;;;5.10;;
315;SDS011;14128;48.686;9.738;2022-07-23T14:31:13;5.40;;;5.10;;
315;SDS011;14128;48.686;9.738;2022-07-23T14:33:41;5.87;;;5.57;;
315;SDS011;14128;48.686;9.738;2022-07-23T14:36:09;5.87;;;5.57;;
315;SDS011;14128;48.686;9.738;2022-07-23T14:38:36;6.17;;;5.87;;
315;SDS011;14128;48.686;9.738;2022-07-23T14:41:04;5.80;;;5.50;;
315;SDS011;14128;48.686;9.738;2022-07-23T14:43:32;6.43;;;6.00;;
315;SDS011;14128;48.686;9.738;2022-07-23T14:46:00;6.23;;;5.90;;
315;SDS011;14128;48.686;9.738;2022-07-23T14:48:27;6.00;;;5.70;;
315;SDS011;14128;48.686;9.738;2022-07-23T14:50:54;6.83;;;6.43;;
315;SDS011;14128;48.686;9.738;2022-07-23T14:53:23;5.87;;;5.57;;
315;SDS011;14128;48.686;9.738;2022-07-23T14:55:50;6.90;;;6.50;;
315;SDS011;14128;48.686;9.738;2022-07-23T14:58:17;5.83;;;5.53;;
315;SDS011;14128;48.686;9.738;2022-07-23T15:00:44;5.80;;;5.50;;
315;SDS011;14128;48.686;9.738;2022-07-23T15:03:12;5.83;;;5.53;;
315;SDS011;14128;48.686;9.738;2022-07-23T15:05:39;6.03;;;5.70;;
315;SDS011;14128;48.686;9.738;2022-07-23T15:08:06;6.73;;;6.33;;
315;SDS011;14128;48.686;9.738;2022-07-23T15:10:35;6.40;;;6.03;;
315;SDS011;14128;48.686;9.738;2022-07-23T15:13:02;7.30;;;6.87;;
315;SDS011;14128;48.686;9.738;2022-07-23T15:15:29;7.27;;;6.87;;
315;SDS011;14128;48.686;9.738;2022-07-23T15:17:56;9.60;;;9.10;;
315;SDS011;14128;48.686;9.738;2022-07-23T15:20:24;6.80;;;6.03;;
315;SDS011;14128;48.686;9.738;2022-07-23T15:22:51;6.10;;;5.80;;
315;SDS011;14128;48.686;9.738;2022-07-23T15:25:18;7.37;;;6.97;;
315;SDS011;14128;48.686;9.738;2022-07-23T15:27:46;7.30;;;6.60;;
315;SDS011;14128;48.686;9.738;2022-07-23T15:30:14;6.80;;;6.40;;
315;SDS011;14128;48.686;9.738;2022-07-23T15:32:41;9.00;;;6.80;;
315;SDS011;14128;48.686;9.738;2022-07-23T15:35:08;6.37;;;6.00;;